Time;durP1;ratioP1;P1;durP2;ratioP2;P2;SDS_P1;SDS_P2;PMS_P1;PMS_P2;Temp;Humidity;BMP_temperature;BMP_pressure;BME280_temperature;BME280_humidity;BME280_pressure;Samples;Min_cycle;Max_cycle;Signal;HPM_P1;HPM_P2
2023/08/23 00:01:07;;;;;;;3.70;0.70;;;;;;;15.57;100.00;100015.21;104325;1260;71895;-49
2023/08/23 00:03:51;;;;;;;6.20;0.80;;;;;;;15.54;100.00;100012.88;104242;1257;60554;-50
2023/08/23 00:06:18;;;;;;;1.40;0.60;;;;;;;15.51;100.00;100009.98;107243;1253;60332;-49
2023/08/23 00:08:45;;;;;;;2.00;0.70;;;;;;;15.47;100.00;100008.27;104493;1254;72805;-49
2023/08/23 00:11:13;;;;;;;1.40;0.80;;;;;;;15.43;100.00;100018.77;104451;1254;66819;-49
2023/08/23 00:13:40;;;;;;;2.10;0.70;;;;;;;15.41;100.00;100012.80;104351;1256;73741;-50
2023/08/23 00:16:08;;;;;;;1.90;1.00;;;;;;;15.38;100.00;100010.99;104746;1255;61978;-48
2023/08/23 00:18:35;;;;;;;3.40;0.80;;;;;;;15.34;100.00;100012.54;104825;1257;60633;-48
2023/08/23 00:21:02;;;;;;;1.60;1.00;;;;;;;15.31;100.00;100011.08;105030;1253;72658;-47
2023/08/23 00:23:30;;;;;;;3.30;0.70;;;;;;;15.30;100.00;100016.61;104980;1254;66780;-48
2023/08/23 00:25:57;;;;;;;0.80;0.70;;;;;;;15.26;100.00;100029.09;104906;1254;72414;-49
2023/08/23 00:28:24;;;;;;;3.20;0.90;;;;;;;15.22;100.00;100030.29;104917;1258;62143;-49
2023/08/23 00:30:53;;;;;;;1.50;0.70;;;;;;;15.17;100.00;100027.90;104968;1254;60475;-49
2023/08/23 00:33:20;;;;;;;1.60;0.60;;;;;;;15.10;100.00;100022.86;105044;1254;75452;-49
2023/08/23 00:35:48;;;;;;;1.50;0.70;;;;;;;15.04;100.00;100022.73;104992;1254;65908;-49
2023/08/23 00:38:16;;;;;;;1.40;0.60;;;;;;;14.99;100.00;100019.42;104862;1255;74540;-48
2023/08/23 00:40:43;;;;;;;1.60;0.60;;;;;;;14.96;100.00;100026.11;104825;1255;60460;-49
2023/08/23 00:43:11;;;;;;;3.40;0.60;;;;;;;14.96;100.00;100021.58;104647;1254;60541;-48
2023/08/23 00:45:39;;;;;;;3.20;0.80;;;;;;;14.98;100.00;100013.48;104630;1254;74855;-51
2023/08/23 00:48:07;;;;;;;1.10;0.70;;;;;;;15.01;100.00;100006.11;104860;1258;66285;-48
2023/08/23 00:50:34;;;;;;;2.90;0.70;;;;;;;15.03;100.00;99995.48;105544;1260;73788;-48
2023/08/23 00:53:02;;;;;;;1.00;0.80;;;;;;;15.06;100.00;99992.92;104605;1254;60502;-46
2023/08/23 00:55:29;;;;;;;1.20;0.70;;;;;;;15.07;100.00;100002.29;104109;1254;62407;-49
2023/08/23 00:57:56;;;;;;;4.80;0.80;;;;;;;15.04;100.00;100008.41;104461;1254;74907;-50
2023/08/23 01:00:24;;;;;;;1.70;0.60;;;;;;;15.01;100.00;100010.64;104440;1254;68185;-49
2023/08/23 01:02:52;;;;;;;0.90;0.60;;;;;;;14.98;100.00;100000.55;104386;1257;71375;-51
2023/08/23 01:05:22;;;;;;;0.70;0.60;;;;;;;14.96;100.00;99993.09;104360;1259;60523;-48
2023/08/23 01:07:52;;;;;;;0.60;0.50;;;;;;;14.95;100.00;99985.19;108749;1254;60069;-49
2023/08/23 01:10:27;;;;;;;1.60;0.50;;;;;;;14.95;100.00;99983.38;104335;1254;74129;-51
2023/08/23 01:13:22;;;;;;;1.70;0.70;;;;;;;14.96;100.00;99973.40;104652;1254;67872;-50
2023/08/23 01:15:49;;;;;;;1.60;0.50;;;;;;;14.97;100.00;99971.69;104589;1255;71991;-48
2023/08/23 01:18:17;;;;;;;2.70;0.80;;;;;;;14.99;100.00;99972.26;104432;1253;60714;-49
2023/08/23 01:20:44;;;;;;;2.00;0.70;;;;;;;15.00;100.00;99968.36;104708;1252;61897;-49
2023/08/23 01:23:16;;;;;;;2.40;0.50;;;;;;;15.00;100.00;99964.59;105955;1254;73785;-49
2023/08/23 01:25:44;;;;;;;2.10;0.70;;;;;;;14.99;100.00;99971.69;104487;1254;66980;-51
2023/08/23 01:28:11;;;;;;;2.60;0.60;;;;;;;14.95;100.00;99983.35;104396;1256;76250;-51
2023/08/23 01:30:39;;;;;;;0.90;0.60;;;;;;;14.90;100.00;99991.80;104483;1254;60099;-52
2023/08/23 01:33:12;;;;;;;0.70;0.50;;;;;;;14.82;100.00;99995.36;104546;1254;60648;-50
2023/08/23 01:36:00;;;;;;;2.60;0.60;;;;;;;14.76;100.00;99998.84;104265;1254;74709;-51
2023/08/23 01:38:27;;;;;;;1.20;0.60;;;;;;;14.71;100.00;99981.77;104437;1254;66056;-49
2023/08/23 01:40:55;;;;;;;2.60;0.60;;;;;;;14.69;100.00;99973.58;104469;1254;71488;-50
2023/08/23 01:43:23;;;;;;;0.80;0.70;;;;;;;14.71;100.00;99969.65;108761;1253;62899;-53
2023/08/23 01:45:50;;;;;;;0.80;0.40;;;;;;;14.74;100.00;99971.81;108858;1253;60000;-54
2023/08/23 01:48:18;;;;;;;1.50;0.50;;;;;;;14.78;100.00;99975.40;108964;1253;74690;-52
2023/08/23 01:50:45;;;;;;;0.80;0.50;;;;;;;14.81;100.00;99977.02;108917;1253;65590;-51
2023/08/23 01:53:12;;;;;;;2.20;0.50;;;;;;;14.78;100.00;99971.23;108846;1254;72680;-53
2023/08/23 01:55:40;;;;;;;1.30;0.50;;;;;;;14.79;100.00;99963.75;108898;1254;60074;-50
2023/08/23 01:58:07;;;;;;;2.30;0.60;;;;;;;14.82;100.00;99970.05;108812;1253;58729;-51
2023/08/23 02:00:34;;;;;;;0.70;0.50;;;;;;;14.87;100.00;99973.23;108839;1254;73865;-51
2023/08/23 02:03:02;;;;;;;1.10;0.40;;;;;;;14.91;100.00;99965.70;108792;1254;67178;-51
2023/08/23 02:05:30;;;;;;;1.60;0.80;;;;;;;14.96;100.00;99967.21;108819;1254;72402;-51
2023/08/23 02:07:58;;;;;;;1.90;0.60;;;;;;;14.97;100.00;99968.02;108900;1254;60446;-52
2023/08/23 02:10:26;;;;;;;1.70;0.50;;;;;;;14.97;100.00;99966.63;108682;1254;251134;-53
2023/08/23 02:14:27;;;;;;;1.40;0.60;;;;;;;14.98;100.00;99989.13;101665;1293;600762;-51
2023/08/23 02:16:54;;;;;;;1.00;0.50;;;;;;;15.00;100.00;99984.48;103644;1270;60556;-51
2023/08/23 02:19:21;;;;;;;0.80;0.60;;;;;;;15.00;100.00;99973.84;108047;1266;60507;-53
2023/08/23 02:21:49;;;;;;;3.60;0.50;;;;;;;15.00;100.00;99976.90;104903;1267;71367;-51
2023/08/23 02:24:16;;;;;;;1.10;0.50;;;;;;;15.01;100.00;99982.25;104134;1271;67803;-50
2023/08/23 02:26:44;;;;;;;1.50;0.60;;;;;;;15.03;100.00;99977.23;104039;1269;72819;-49
2023/08/23 02:29:13;;;;;;;1.20;0.50;;;;;;;15.07;100.00;99977.34;104353;1269;273296;-51
2023/08/23 02:31:40;;;;;;;0.90;0.40;;;;;;;15.08;100.00;99968.77;104300;1263;60708;-53
2023/08/23 02:34:09;;;;;;;2.00;0.50;;;;;;;15.11;100.00;99968.79;105164;1269;72444;-50
2023/08/23 02:36:36;;;;;;;1.20;0.50;;;;;;;15.14;100.00;99969.98;104269;1263;65541;-52
2023/08/23 02:39:03;;;;;;;2.00;0.40;;;;;;;15.14;100.00;99975.80;104266;1269;73621;-53
2023/08/23 02:41:31;;;;;;;0.80;0.50;;;;;;;15.07;100.00;99976.25;104144;1267;59659;-52
2023/08/23 02:43:58;;;;;;;1.60;0.50;;;;;;;15.00;100.00;99971.09;104130;1264;60024;-52
2023/08/23 02:46:25;;;;;;;0.80;0.60;;;;;;;14.97;100.00;99962.85;104193;1270;72983;-52
2023/08/23 02:48:53;;;;;;;1.00;0.60;;;;;;;14.97;100.00;99965.33;104334;1266;65496;-51
2023/08/23 02:51:20;;;;;;;1.00;0.40;;;;;;;15.00;100.00;99969.51;104034;1269;72605;-50
2023/08/23 02:53:47;;;;;;;2.00;0.50;;;;;;;15.00;100.00;99976.35;103866;1267;61710;-52
2023/08/23 02:56:15;;;;;;;0.50;0.40;;;;;;;15.00;100.00;99983.77;103627;1264;59736;-52
2023/08/23 02:58:42;;;;;;;0.60;0.40;;;;;;;14.99;100.00;99984.02;104103;1264;73539;-51
2023/08/23 03:01:11;;;;;;;1.30;0.50;;;;;;;14.98;100.00;99989.66;104118;1263;65031;-52
2023/08/23 03:03:38;;;;;;;2.70;0.60;;;;;;;14.96;100.00;99984.75;106230;1266;73552;-51
2023/08/23 03:06:06;;;;;;;1.30;0.50;;;;;;;14.93;100.00;99983.10;103592;1267;60581;-53
2023/08/23 03:08:33;;;;;;;1.90;0.60;;;;;;;14.91;100.00;99993.73;103678;1263;60043;-53
2023/08/23 03:11:03;;;;;;;1.20;0.60;;;;;;;14.86;100.00;99994.23;103812;1264;72948;-52
2023/08/23 03:13:31;;;;;;;1.20;0.50;;;;;;;14.82;100.00;99992.27;103739;1264;66219;-53
2023/08/23 03:15:59;;;;;;;2.60;0.60;;;;;;;14.79;100.00;100002.06;104008;1267;72902;-51
2023/08/23 03:18:26;;;;;;;0.80;0.50;;;;;;;14.73;100.00;100002.02;103818;1266;59993;-51
2023/08/23 03:20:54;;;;;;;2.30;0.50;;;;;;;14.69;100.00;99994.71;103633;1264;59807;-50
2023/08/23 03:23:22;;;;;;;1.00;0.50;;;;;;;14.69;100.00;99983.90;105763;1266;74857;-51
2023/08/23 03:25:50;;;;;;;0.90;0.50;;;;;;;14.71;100.00;99986.48;108126;1263;66924;-52
2023/08/23 03:28:19;;;;;;;4.70;0.60;;;;;;;14.74;100.00;99983.05;105168;1264;72667;-52
2023/08/23 03:30:47;;;;;;;2.00;0.40;;;;;;;14.74;100.00;99991.84;103766;1266;60539;-51
2023/08/23 03:33:15;;;;;;;2.40;0.50;;;;;;;14.73;100.00;99994.84;106887;1264;60088;-49
2023/08/23 03:35:43;;;;;;;1.10;0.50;;;;;;;14.72;100.00;99995.11;103641;1264;71796;-52
2023/08/23 03:38:10;;;;;;;1.00;0.80;;;;;;;14.73;100.00;99996.11;103658;1270;65634;-52
2023/08/23 03:40:38;;;;;;;2.10;0.60;;;;;;;14.74;100.00;99990.42;103530;1264;72448;-50
2023/08/23 03:43:05;;;;;;;3.50;0.60;;;;;;;14.78;100.00;99986.27;103660;1266;60082;-51
2023/08/23 03:45:33;;;;;;;2.00;0.60;;;;;;;14.82;100.00;99975.33;103882;1263;61264;-50
2023/08/23 03:48:02;;;;;;;5.90;0.60;;;;;;;14.86;100.00;99959.00;103809;1264;73042;-51
2023/08/23 03:50:29;;;;;;;0.60;0.50;;;;;;;14.90;100.00;99967.37;106572;1270;65517;-52
2023/08/23 03:52:57;;;;;;;1.30;0.50;;;;;;;14.93;100.00;99972.63;103785;1266;73112;-50
2023/08/23 03:55:24;;;;;;;1.50;0.50;;;;;;;14.91;100.00;99985.40;103713;1270;61668;-51
2023/08/23 03:57:52;;;;;;;1.00;0.50;;;;;;;14.88;100.00;99993.04;103901;1264;60103;-52
2023/08/23 04:00:19;;;;;;;3.20;0.50;;;;;;;14.87;100.00;99995.40;103641;1267;73072;-53
2023/08/23 04:02:46;;;;;;;1.40;0.50;;;;;;;14.92;100.00;99988.44;103791;1266;66813;-51
2023/08/23 04:05:14;;;;;;;0.70;0.40;;;;;;;15.00;100.00;99976.00;103815;1263;73206;-51
2023/08/23 04:07:42;;;;;;;0.80;0.40;;;;;;;15.11;100.00;99980.36;106280;1266;62274;-52
2023/08/23 04:10:09;;;;;;;0.80;0.50;;;;;;;15.25;100.00;99979.48;103562;1263;61009;-52
2023/08/23 04:12:37;;;;;;;0.50;0.40;;;;;;;15.42;100.00;99962.79;103666;1264;75705;-52
2023/08/23 04:15:06;;;;;;;2.30;0.50;;;;;;;15.61;100.00;99957.83;103599;1264;66929;-51
2023/08/23 04:17:33;;;;;;;2.50;0.50;;;;;;;15.79;100.00;99955.87;104375;1269;72664;-51
2023/08/23 04:20:03;;;;;;;1.20;0.60;;;;;;;15.99;100.00;99949.98;104220;1271;60033;-52
2023/08/23 04:22:30;;;;;;;0.60;0.40;;;;;;;16.23;100.00;99942.23;105522;1264;61038;-52
2023/08/23 04:24:58;;;;;;;1.00;0.40;;;;;;;16.51;100.00;99937.34;104927;1263;73043;-52
2023/08/23 04:27:26;;;;;;;2.30;0.40;;;;;;;16.81;100.00;99937.99;104457;1260;66755;-52
2023/08/23 04:29:53;;;;;;;1.60;0.40;;;;;;;17.11;100.00;99935.47;104238;1267;71383;-50
2023/08/23 04:32:21;;;;;;;1.30;0.50;;;;;;;17.33;100.00;99938.71;106257;1264;63427;-52
2023/08/23 04:34:48;;;;;;;1.30;0.60;;;;;;;17.46;100.00;99943.06;104458;1260;60567;-53
2023/08/23 04:37:16;;;;;;;1.80;0.40;;;;;;;17.52;100.00;99946.58;104353;1266;73066;-51
2023/08/23 04:39:44;;;;;;;0.90;0.40;;;;;;;17.55;100.00;99947.27;108554;1260;68797;-54
2023/08/23 04:42:12;;;;;;;2.80;0.70;;;;;;;17.56;100.00;99946.67;108486;1263;72984;-51
2023/08/23 04:44:39;;;;;;;1.20;0.60;;;;;;;17.57;100.00;99946.44;107848;1263;60264;-52
2023/08/23 04:47:06;;;;;;;1.90;0.50;;;;;;;17.57;100.00;99948.06;104443;1260;59992;-53
2023/08/23 04:49:34;;;;;;;1.40;0.50;;;;;;;17.56;100.00;99950.23;104334;1263;73323;-52
2023/08/23 04:52:02;;;;;;;4.00;0.50;;;;;;;17.56;100.00;99948.11;104400;1267;68910;-50
2023/08/23 04:54:30;;;;;;;3.00;0.40;;;;;;;17.57;100.00;99942.95;106473;1260;72312;-50
2023/08/23 04:56:57;;;;;;;1.50;0.50;;;;;;;17.60;100.00;99948.16;104226;1260;60066;-51
2023/08/23 04:59:25;;;;;;;1.60;0.50;;;;;;;17.64;100.00;99947.37;104354;1260;62244;-53
2023/08/23 05:01:52;;;;;;;2.40;0.50;;;;;;;17.67;100.00;99952.55;104504;1267;71141;-52
2023/08/23 05:04:22;;;;;;;3.00;0.50;;;;;;;17.71;100.00;99955.36;108476;1260;65915;-52
2023/08/23 05:06:49;;;;;;;1.00;0.40;;;;;;;17.77;100.00;99956.00;108598;1260;73127;-55
2023/08/23 05:09:16;;;;;;;2.70;0.50;;;;;;;17.85;100.00;99948.34;108591;1260;61659;-55
2023/08/23 05:11:44;;;;;;;3.00;0.50;;;;;;;17.93;100.00;99948.94;108693;1260;58764;-54
2023/08/23 05:14:11;;;;;;;1.60;0.50;;;;;;;18.03;100.00;99946.36;105166;1260;73025;-53
2023/08/23 05:16:39;;;;;;;2.60;0.40;;;;;;;18.14;100.00;99949.91;104303;1266;65530;-52
2023/08/23 05:19:06;;;;;;;3.60;0.50;;;;;;;18.26;100.00;99950.85;104441;1263;70088;-54
2023/08/23 05:21:33;;;;;;;2.10;0.90;;;;;;;18.37;100.00;99946.16;104115;1264;59831;-52
2023/08/23 05:24:01;;;;;;;2.80;1.00;;;;;;;18.48;100.00;99942.16;104414;1267;59625;-52
2023/08/23 05:26:28;;;;;;;4.00;0.70;;;;;;;18.59;100.00;99944.81;104267;1263;73130;-53
2023/08/23 05:28:55;;;;;;;3.30;0.60;;;;;;;18.69;100.00;99945.84;104319;1266;67751;-52
2023/08/23 05:31:23;;;;;;;1.30;0.60;;;;;;;18.78;100.00;99947.34;104450;1266;73162;-52
2023/08/23 05:33:50;;;;;;;3.10;0.50;;;;;;;18.83;100.00;99957.42;104562;1263;59817;-52
2023/08/23 05:36:19;;;;;;;1.80;0.60;;;;;;;18.91;100.00;99953.92;104415;1260;61020;-54
2023/08/23 05:38:49;;;;;;;2.30;0.50;;;;;;;19.01;100.00;99946.59;104390;1261;71893;-52
2023/08/23 05:41:17;;;;;;;3.60;0.50;;;;;;;19.10;100.00;99938.57;104472;1260;66914;-54
2023/08/23 05:43:44;;;;;;;1.70;0.50;;;;;;;19.19;100.00;99939.45;104393;1263;71436;-52
2023/08/23 05:46:12;;;;;;;2.00;1.10;;;;;;;19.30;100.00;99940.05;106575;1262;60046;-52
2023/08/23 05:48:40;;;;;;;1.90;0.50;;;;;;;19.40;100.00;99933.22;104445;1260;60124;-53
2023/08/23 05:51:08;;;;;;;2.50;0.40;;;;;;;19.49;100.00;99935.01;104504;1261;71763;-53
2023/08/23 05:53:35;;;;;;;0.60;0.50;;;;;;;19.58;100.00;99931.02;104311;1261;65530;-54
2023/08/23 05:56:03;;;;;;;1.30;0.40;;;;;;;19.66;100.00;99930.88;104240;1260;70960;-54
2023/08/23 05:58:30;;;;;;;1.30;0.40;;;;;;;19.72;100.00;99924.88;104572;1264;60199;-52
2023/08/23 06:00:57;;;;;;;1.10;0.40;;;;;;;19.79;100.00;99928.15;104325;1263;59714;-53
2023/08/23 06:03:26;;;;;;;1.60;0.50;;;;;;;19.88;100.00;99927.44;104841;1260;71813;-53
2023/08/23 06:05:56;;;;;;;3.00;0.40;;;;;;;19.95;100.00;99930.44;104765;1260;67068;-50
2023/08/23 06:08:23;;;;;;;1.80;0.60;;;;;;;20.04;100.00;99928.39;104829;1253;72651;-53
2023/08/23 06:10:51;;;;;;;5.00;0.30;;;;;;;20.13;100.00;99921.60;104772;1254;59723;-51
2023/08/23 06:13:18;;;;;;;2.10;0.70;;;;;;;20.24;100.00;99924.48;104995;1254;60005;-51
2023/08/23 06:15:46;;;;;;;3.30;0.50;;;;;;;20.32;100.00;99923.04;104934;1254;70474;-51
2023/08/23 06:18:13;;;;;;;1.90;0.70;;;;;;;20.41;100.00;99925.60;104983;1254;67326;-52
2023/08/23 06:20:43;;;;;;;1.30;0.30;;;;;;;20.46;100.00;99925.52;104908;1253;72701;-51
2023/08/23 06:23:10;;;;;;;1.00;0.40;;;;;;;20.51;100.00;99925.10;109013;1252;60192;-54
2023/08/23 06:25:38;;;;;;;3.10;0.40;;;;;;;20.55;100.00;99924.54;109066;1252;60112;-53
2023/08/23 06:28:09;;;;;;;0.60;0.30;;;;;;;20.56;100.00;99922.35;106336;1254;74315;-52
2023/08/23 06:30:37;;;;;;;0.50;0.30;;;;;;;20.56;100.00;99924.69;104996;1254;66834;-51
2023/08/23 06:33:05;;;;;;;1.80;0.30;;;;;;;20.57;100.00;99926.08;105651;1254;70641;-51
2023/08/23 06:35:33;;;;;;;2.00;0.40;;;;;;;20.56;100.00;99931.06;105295;1254;60466;-51
2023/08/23 06:38:01;;;;;;;0.60;0.30;;;;;;;20.54;100.00;99931.20;104998;1260;60516;-53
2023/08/23 06:40:29;;;;;;;1.80;0.20;;;;;;;20.52;100.00;99930.16;105324;1257;73816;-52
2023/08/23 06:42:56;;;;;;;3.70;0.30;;;;;;;20.51;100.00;99931.01;105003;1259;66356;-53
2023/08/23 06:45:23;;;;;;;1.10;0.40;;;;;;;20.50;100.00;99929.09;104884;1255;72801;-52
2023/08/23 06:47:51;;;;;;;1.30;0.20;;;;;;;20.50;100.00;99926.31;104980;1253;62175;-51
2023/08/23 06:50:19;;;;;;;1.60;0.30;;;;;;;20.51;100.00;99929.13;105657;1254;60535;-52
2023/08/23 06:52:46;;;;;;;2.30;0.30;;;;;;;20.52;100.00;99927.93;105008;1259;73897;-53
2023/08/23 06:55:14;;;;;;;5.80;0.80;;;;;;;20.55;100.00;99925.09;105167;1258;66751;-50
2023/08/23 06:57:41;;;;;;;0.40;0.30;;;;;;;20.59;100.00;99926.61;104884;1254;72690;-53
2023/08/23 07:00:09;;;;;;;3.00;0.30;;;;;;;20.62;100.00;99925.95;105071;1259;61325;-52
2023/08/23 07:02:37;;;;;;;0.90;0.30;;;;;;;20.64;100.00;99935.42;104972;1254;60606;-52
2023/08/23 07:05:04;;;;;;;1.90;0.40;;;;;;;20.68;100.00;99931.65;105035;1254;73835;-51
2023/08/23 07:07:31;;;;;;;1.20;0.30;;;;;;;20.72;100.00;99932.52;104912;1254;66917;-53
2023/08/23 07:09:59;;;;;;;1.40;0.50;;;;;;;20.80;100.00;99935.52;105085;1254;71364;-53
2023/08/23 07:12:34;;;;;;;1.40;0.30;;;;;;;20.87;100.00;99938.73;105034;1257;60562;-54
2023/08/23 07:15:01;;;;;;;2.30;0.30;;;;;;;20.93;100.00;99937.13;105071;1259;60384;-54
2023/08/23 07:17:28;;;;;;;0.70;0.30;;;;;;;20.97;100.00;99937.42;105031;1259;73987;-52
2023/08/23 07:19:56;;;;;;;1.90;0.40;;;;;;;21.03;100.00;99935.48;105242;1254;67042;-54
2023/08/23 07:22:23;;;;;;;1.10;0.30;;;;;;;21.06;100.00;99931.39;105248;1257;71458;-54
2023/08/23 07:24:51;;;;;;;1.20;0.40;;;;;;;21.08;100.00;99926.45;104958;1259;61566;-54
2023/08/23 07:27:18;;;;;;;5.40;0.40;;;;;;;21.12;100.00;99928.27;104999;1254;60603;-53
2023/08/23 07:29:46;;;;;;;0.80;0.30;;;;;;;21.19;100.00;99932.80;104943;1259;72086;-54
2023/08/23 07:32:13;;;;;;;2.10;0.50;;;;;;;21.27;100.00;99937.72;105093;1254;67026;-53
2023/08/23 07:34:40;;;;;;;3.20;0.50;;;;;;;21.34;100.00;99937.45;105066;1259;72136;-53
2023/08/23 07:37:08;;;;;;;1.30;0.50;;;;;;;21.40;100.00;99935.30;105107;1254;60571;-53
2023/08/23 07:39:35;;;;;;;3.10;0.40;;;;;;;21.40;100.00;99935.79;105097;1259;60499;-52
2023/08/23 07:42:02;;;;;;;0.70;0.40;;;;;;;21.43;100.00;99934.13;104911;1255;74233;-52
2023/08/23 07:44:30;;;;;;;0.60;0.30;;;;;;;21.51;100.00;99935.40;104890;1254;65828;-52
2023/08/23 07:46:57;;;;;;;0.50;0.30;;;;;;;21.62;100.00;99935.65;109090;1252;73715;-53
2023/08/23 07:49:24;;;;;;;0.90;0.40;;;;;;;21.69;100.00;99936.65;109078;1252;60637;-52
2023/08/23 07:51:52;;;;;;;1.20;0.30;;;;;;;21.73;100.00;99938.63;109176;1253;59787;-52
2023/08/23 07:54:19;;;;;;;0.90;0.30;;;;;;;21.76;100.00;99937.25;109122;1253;73876;-53
2023/08/23 07:56:46;;;;;;;3.60;0.40;;;;;;;21.80;100.00;99938.52;109205;1253;67474;-53
2023/08/23 07:59:14;;;;;;;1.00;0.20;;;;;;;21.85;100.00;99940.39;109004;1253;72299;-53
2023/08/23 08:01:41;;;;;;;3.20;0.40;;;;;;;21.93;100.00;99943.95;109160;1252;60639;-53
2023/08/23 08:04:09;;;;;;;1.80;0.40;;;;;;;22.00;100.00;99940.73;109088;1252;58731;-55
2023/08/23 08:06:37;;;;;;;1.50;0.20;;;;;;;22.08;100.00;99940.70;109120;1254;73882;-55
2023/08/23 08:09:04;;;;;;;0.80;0.30;;;;;;;22.17;100.00;99937.88;109174;1254;67164;-53
2023/08/23 08:11:31;;;;;;;0.50;0.30;;;;;;;22.24;100.00;99941.39;109182;1253;73158;-53
2023/08/23 08:13:59;;;;;;;1.60;0.20;;;;;;;22.31;100.00;99943.54;109040;1254;58774;-54
2023/08/23 08:16:26;;;;;;;1.00;0.50;;;;;;;22.38;100.00;99944.13;109190;1254;60001;-52
2023/08/23 08:18:53;;;;;;;0.90;0.30;;;;;;;22.44;100.00;99936.92;106869;1254;74520;-53
2023/08/23 08:21:21;;;;;;;1.70;0.20;;;;;;;22.53;100.00;99942.05;104997;1259;67437;-53
2023/08/23 08:23:48;;;;;;;0.80;0.30;;;;;;;22.60;100.00;99942.35;104875;1257;71395;-50
2023/08/23 08:26:16;;;;;;;0.80;0.20;;;;;;;22.61;100.00;99937.90;104984;1255;60443;-51
2023/08/23 08:28:44;;;;;;;0.30;0.30;;;;;;;22.60;100.00;99938.13;105063;1255;60443;-53
2023/08/23 08:31:11;;;;;;;0.80;0.20;;;;;;;22.58;100.00;99943.27;108984;1256;72680;-54
2023/08/23 08:33:39;;;;;;;4.10;0.20;;;;;;;22.57;100.00;99948.64;108281;1256;67470;-55
2023/08/23 08:36:06;;;;;;;0.50;0.20;;;;;;;22.58;100.00;99947.83;104929;1255;71467;-54
2023/08/23 08:38:37;;;;;;;1.40;0.20;;;;;;;22.62;100.00;99950.71;104924;1259;60562;-53
2023/08/23 08:41:05;;;;;;;0.50;0.20;;;;;;;22.69;100.00;99949.55;104997;1253;60427;-53
2023/08/23 08:43:32;;;;;;;0.70;0.30;;;;;;;22.76;100.00;99947.11;104975;1253;74102;-54
2023/08/23 08:46:01;;;;;;;1.60;0.50;;;;;;;22.83;100.00;99943.45;104700;1253;65932;-52
2023/08/23 08:48:28;;;;;;;2.10;0.40;;;;;;;22.92;100.00;99943.74;104776;1259;74302;-49
2023/08/23 08:50:56;;;;;;;0.50;0.30;;;;;;;23.01;100.00;99942.64;104996;1254;60683;-52
2023/08/23 08:53:27;;;;;;;0.50;0.20;;;;;;;23.08;100.00;99943.39;105130;1254;60552;-53
2023/08/23 08:55:55;;;;;;;0.50;0.30;;;;;;;23.14;100.00;99942.32;104960;1254;73794;-52
2023/08/23 08:58:22;;;;;;;1.10;0.30;;;;;;;23.18;100.00;99940.05;105095;1254;64881;-52
2023/08/23 09:00:50;;;;;;;0.50;0.30;;;;;;;23.25;100.00;99938.82;104717;1257;71410;-52
2023/08/23 09:03:18;;;;;;;1.40;0.30;;;;;;;23.33;100.00;99938.33;104762;1254;60530;-51
2023/08/23 09:05:48;;;;;;;0.70;0.30;;;;;;;23.42;100.00;99931.77;109071;1253;59048;-54
2023/08/23 09:08:15;;;;;;;3.20;0.20;;;;;;;23.53;100.00;99925.04;105179;1258;72619;-53
2023/08/23 09:10:42;;;;;;;1.80;0.20;;;;;;;23.64;100.00;99927.48;105028;1258;66715;-53
2023/08/23 09:13:10;;;;;;;1.20;0.20;;;;;;;23.72;100.00;99932.09;105045;1254;73135;-53
2023/08/23 09:15:37;;;;;;;0.70;0.20;;;;;;;23.76;100.00;99929.31;104959;1259;60417;-53
2023/08/23 09:18:05;;;;;;;0.70;0.30;;;;;;;23.83;100.00;99937.40;105144;1254;60498;-53
2023/08/23 09:20:33;;;;;;;0.80;0.30;;;;;;;23.91;100.00;99935.56;105318;1257;72226;-52
2023/08/23 09:23:00;;;;;;;0.30;0.20;;;;;;;23.96;100.00;99935.42;104998;1254;65534;-52
2023/08/23 09:25:28;;;;;;;0.30;0.20;;;;;;;23.96;100.00;99930.23;105082;1254;72707;-52
2023/08/23 09:27:55;;;;;;;0.80;0.30;;;;;;;23.94;100.00;99933.44;105004;1255;60559;-55
2023/08/23 09:30:24;;;;;;;0.70;0.30;;;;;;;23.93;100.00;99935.48;105230;1252;60556;-52
2023/08/23 09:32:51;;;;;;;0.50;0.20;;;;;;;23.96;100.00;99935.97;104952;1253;72637;-52
2023/08/23 09:35:19;;;;;;;0.60;0.20;;;;;;;23.99;100.00;99937.80;105113;1254;65782;-53
2023/08/23 09:37:47;;;;;;;0.70;0.20;;;;;;;24.05;100.00;99933.74;105024;1254;72155;-54
2023/08/23 09:40:22;;;;;;;2.90;0.20;;;;;;;24.07;100.00;99941.20;107686;1254;60613;-55
2023/08/23 09:42:50;;;;;;;1.10;0.20;;;;;;;24.07;100.00;99942.02;105159;1254;60039;-53
2023/08/23 09:45:22;;;;;;;0.50;0.20;;;;;;;24.05;100.00;99946.33;104894;1252;73838;-52
2023/08/23 09:47:51;;;;;;;1.10;0.20;;;;;;;24.08;100.00;99946.21;105184;1254;67305;-52
2023/08/23 09:50:20;;;;;;;0.50;0.20;;;;;;;24.14;100.00;99937.19;105576;1254;72660;-52
2023/08/23 09:52:51;;;;;;;1.20;0.20;;;;;;;24.18;100.00;99941.42;104549;1257;60528;-51
2023/08/23 09:55:18;;;;;;;0.40;0.20;;;;;;;24.20;100.00;99941.41;104844;1259;60406;-52
2023/08/23 09:57:45;;;;;;;1.80;0.20;;;;;;;24.18;100.00;99944.14;104805;1254;72554;-53
2023/08/23 10:00:15;;;;;;;0.80;0.30;;;;;;;24.15;100.00;99944.21;105040;1254;67337;-53
2023/08/23 10:02:42;;;;;;;0.30;0.10;;;;;;;24.09;100.00;99949.80;104917;1254;71854;-51
2023/08/23 10:05:11;;;;;;;1.50;0.20;;;;;;;24.03;100.00;99941.59;104649;1253;60614;-52
2023/08/23 10:07:42;;;;;;;1.40;0.20;;;;;;;24.00;100.00;99939.40;107076;1254;60319;-53
2023/08/23 10:10:10;;;;;;;0.80;0.40;;;;;;;23.97;100.00;99937.47;104997;1257;72016;-52
2023/08/23 10:12:39;;;;;;;1.80;0.20;;;;;;;23.98;100.00;99939.77;105640;1254;67014;-55
2023/08/23 10:15:08;;;;;;;0.70;0.30;;;;;;;24.01;100.00;99937.64;105636;1258;72638;-53
2023/08/23 10:17:36;;;;;;;0.50;0.20;;;;;;;24.03;100.00;99935.60;105340;1254;60504;-53
2023/08/23 10:20:05;;;;;;;0.60;0.20;;;;;;;24.01;100.00;99941.65;104949;1259;60496;-53
2023/08/23 10:22:32;;;;;;;2.90;0.30;;;;;;;23.99;100.00;99935.62;105812;1254;72602;-54
2023/08/23 10:25:19;;;;;;;0.40;0.20;;;;;;;24.03;100.00;99932.50;105198;1259;68888;-54
2023/08/23 10:27:51;;;;;;;0.50;0.20;;;;;;;24.12;100.00;99928.27;105435;1259;73262;-54
2023/08/23 10:30:25;;;;;;;3.20;0.30;;;;;;;24.23;100.00;99920.74;105020;1254;60637;-53
2023/08/23 10:32:55;;;;;;;3.00;0.30;;;;;;;24.34;100.00;99912.33;105250;1256;60541;-53
2023/08/23 10:35:31;;;;;;;1.10;0.20;;;;;;;24.40;100.00;99911.64;105399;1258;73843;-54
2023/08/23 10:37:58;;;;;;;2.60;0.20;;;;;;;24.41;100.00;99914.25;105196;1259;65667;-53
2023/08/23 10:40:30;;;;;;;0.80;0.20;;;;;;;24.42;100.00;99913.98;104838;1255;72800;-53
2023/08/23 10:42:57;;;;;;;1.00;0.20;;;;;;;24.44;100.00;99912.25;109035;1254;58795;-54
2023/08/23 10:45:25;;;;;;;1.50;0.20;;;;;;;24.48;100.00;99902.21;109180;1254;60005;-52
2023/08/23 10:47:53;;;;;;;1.00;0.30;;;;;;;24.54;100.00;99910.41;109132;1253;74300;-54
2023/08/23 10:50:21;;;;;;;1.50;0.20;;;;;;;24.60;100.00;99905.53;109109;1253;66764;-55
2023/08/23 10:52:49;;;;;;;0.30;0.20;;;;;;;24.63;100.00;99906.09;108967;1251;71806;-54
2023/08/23 10:55:17;;;;;;;1.10;0.30;;;;;;;24.66;100.00;99906.31;109145;1252;60100;-55
2023/08/23 10:57:44;;;;;;;2.30;0.20;;;;;;;24.69;100.00;99901.48;109169;1251;58754;-54
2023/08/23 11:00:13;;;;;;;0.40;0.20;;;;;;;24.75;100.00;99895.85;109078;1254;73876;-54
2023/08/23 11:02:41;;;;;;;0.90;0.20;;;;;;;24.83;100.00;99899.04;109180;1254;67402;-54
2023/08/23 11:05:09;;;;;;;2.90;0.20;;;;;;;24.86;100.00;99891.38;108991;1254;71471;-54
2023/08/23 11:07:36;;;;;;;1.60;0.20;;;;;;;24.86;100.00;99895.40;109046;1253;60044;-53
2023/08/23 11:10:07;;;;;;;0.60;0.20;;;;;;;24.87;100.00;99894.35;108894;1254;60712;-54
2023/08/23 11:12:35;;;;;;;2.40;0.30;;;;;;;24.91;100.00;99894.76;109112;1252;74755;-53
2023/08/23 11:15:04;;;;;;;1.10;0.20;;;;;;;24.95;100.00;99889.23;108565;1257;66781;-53
2023/08/23 11:17:31;;;;;;;1.80;0.20;;;;;;;24.99;100.00;99891.13;109110;1254;71446;-55
2023/08/23 11:19:58;;;;;;;0.30;0.20;;;;;;;25.04;100.00;99894.14;106156;1254;60447;-55
2023/08/23 11:22:26;;;;;;;0.50;0.20;;;;;;;25.03;100.00;99893.30;104948;1251;60972;-53